createdAt,value
2022-10-31T00:00:05.371Z,100448.56
2022-10-31T00:01:06.167Z,100446.25
2022-10-31T00:01:47.303Z,100456.44
2022-10-31T00:02:28.294Z,100453.84
2022-10-31T00:03:08.331Z,100449.25
2022-10-31T00:03:48.173Z,100449.66
2022-10-31T00:04:35.272Z,100456.13
2022-10-31T00:05:29.247Z,100451.28
2022-10-31T00:06:23.183Z,100456.97
2022-10-31T00:07:17.172Z,100433.09
2022-10-31T00:08:11.199Z,100453.22
2022-10-31T00:09:14.209Z,100452.25
2022-10-31T00:09:54.207Z,100458.53
2022-10-31T00:10:34.287Z,100452.53
2022-10-31T00:11:18.191Z,100456.78
2022-10-31T00:11:58.312Z,100436.22
2022-10-31T00:12:39.166Z,100451.91
2022-10-31T00:14:03.191Z,100435.81
2022-10-31T00:14:43.234Z,100455.66
2022-10-31T00:15:23.223Z,100455.66
2022-10-31T00:16:03.256Z,100451.22
2022-10-31T00:16:44.218Z,100456.50
2022-10-31T00:17:24.320Z,100453.94
2022-10-31T00:18:06.214Z,100450.50
2022-10-31T00:18:46.251Z,100460.41
2022-10-31T00:19:26.190Z,100458.81
2022-10-31T00:20:06.271Z,100461.72
2022-10-31T00:20:47.180Z,100457.13
2022-10-31T00:21:28.247Z,100451.75
2022-10-31T00:22:09.209Z,100465.13
2022-10-31T00:22:49.252Z,100448.72
2022-10-31T00:23:29.212Z,100464.59
2022-10-31T00:24:09.269Z,100462.00
2022-10-31T00:24:49.156Z,100464.59
2022-10-31T00:25:29.267Z,100464.88
2022-10-31T00:26:11.205Z,100467.44
2022-10-31T00:26:51.218Z,100465.44
2022-10-31T00:27:32.179Z,100456.16
2022-10-31T00:28:14.292Z,100446.91
2022-10-31T00:28:55.185Z,100465.72
2022-10-31T00:29:35.272Z,100462.31
2022-10-31T00:30:16.156Z,100458.59
2022-10-31T00:30:56.223Z,100457.75
2022-10-31T00:31:37.223Z,100446.63
2022-10-31T00:32:18.256Z,100452.59
2022-10-31T00:32:58.555Z,100448.50
2022-10-31T00:33:47.136Z,100448.34
2022-10-31T00:34:27.139Z,100458.75
2022-10-31T00:35:07.210Z,100460.91
2022-10-31T00:35:47.182Z,100465.34
2022-10-31T00:36:27.248Z,100460.06
2022-10-31T00:37:08.272Z,100438.69
2022-10-31T00:37:48.229Z,100462.94
2022-10-31T00:38:29.185Z,100463.38
2022-10-31T00:39:09.276Z,100466.81
2022-10-31T00:39:49.142Z,100454.38
2022-10-31T00:40:29.210Z,100464.25
2022-10-31T00:41:09.157Z,100460.97
2022-10-31T00:41:49.226Z,100459.25
2022-10-31T00:42:30.187Z,100466.28
2022-10-31T00:43:13.180Z,100449.84
2022-10-31T00:43:54.135Z,100459.88
2022-10-31T00:44:34.240Z,100458.72
2022-10-31T00:45:18.156Z,100465.31
2022-10-31T00:45:58.208Z,100469.88
2022-10-31T00:46:38.129Z,100472.44
2022-10-31T00:47:18.236Z,100460.19
2022-10-31T00:48:05.219Z,100448.78
2022-10-31T00:48:39.058Z,100465.06
2022-10-31T00:49:26.155Z,100470.19
2022-10-31T00:49:59.858Z,100460.63
2022-10-31T00:50:47.352Z,100474.22
2022-10-31T00:51:22.199Z,100466.19
2022-10-31T00:52:10.150Z,100461.38
2022-10-31T00:52:43.932Z,100463.41
2022-10-31T00:53:24.153Z,100460.84
2022-10-31T00:53:58.231Z,100459.25
2022-10-31T00:54:31.925Z,100465.09
2022-10-31T00:55:13.131Z,100452.84
2022-10-31T00:55:47.243Z,100465.25
2022-10-31T00:56:20.824Z,100461.97
2022-10-31T00:57:02.151Z,100461.84
2022-10-31T00:57:36.212Z,100458.00
2022-10-31T00:58:09.898Z,100461.28
2022-10-31T00:58:50.156Z,100462.97
2022-10-31T00:59:24.236Z,100465.16
2022-10-31T00:59:57.875Z,100464.16
2022-10-31T01:00:38.156Z,100466.88
2022-10-31T01:01:12.330Z,100460.19
2022-10-31T01:01:45.969Z,100458.31
2022-10-31T01:02:27.285Z,100474.28
2022-10-31T01:03:01.533Z,100464.44
2022-10-31T01:03:36.098Z,100448.31
2022-10-31T01:04:16.208Z,100465.78
2022-10-31T01:04:50.224Z,100464.31
2022-10-31T01:05:23.976Z,100467.75
2022-10-31T01:06:11.146Z,100462.59
2022-10-31T01:06:45.156Z,100469.75
2022-10-31T01:07:18.913Z,100469.50
2022-10-31T01:07:59.135Z,100464.91
2022-10-31T01:08:33.264Z,100451.94
2022-10-31T01:09:06.871Z,100463.91
2022-10-31T01:09:48.168Z,100459.31
2022-10-31T01:10:22.167Z,100452.34
2022-10-31T01:11:20.953Z,100454.91
2022-10-31T01:12:02.132Z,100455.91
2022-10-31T01:12:36.206Z,100460.50
2022-10-31T01:13:10.056Z,100457.78
2022-10-31T01:13:51.168Z,100462.03
2022-10-31T01:14:25.221Z,100467.31
2022-10-31T01:15:05.190Z,100463.91
2022-10-31T01:15:45.231Z,100462.91
2022-10-31T01:16:28.110Z,100462.47
2022-10-31T01:17:09.175Z,100438.13
2022-10-31T01:17:49.105Z,100459.25
2022-10-31T01:18:30.248Z,100469.00
2022-10-31T01:19:10.111Z,100455.53
2022-10-31T01:19:50.167Z,100465.97
2022-10-31T01:20:30.165Z,100458.72
2022-10-31T01:21:18.193Z,100461.56
2022-10-31T01:21:58.146Z,100460.38
2022-10-31T01:22:38.184Z,100466.38
2022-10-31T01:23:18.099Z,100463.66
2022-10-31T01:24:03.023Z,100469.53
2022-10-31T01:24:43.092Z,100468.09
2022-10-31T01:25:23.220Z,100463.09
2022-10-31T01:26:40.139Z,100464.97
2022-10-31T01:27:21.230Z,100461.56
2022-10-31T01:28:01.364Z,100466.38
2022-10-31T01:28:43.187Z,100468.94
2022-10-31T01:29:23.106Z,100457.81
2022-10-31T01:30:03.224Z,100462.81
2022-10-31T01:30:43.164Z,100437.28
2022-10-31T01:31:25.256Z,100455.84
2022-10-31T01:32:06.130Z,100464.69
2022-10-31T01:32:46.168Z,100464.69
2022-10-31T01:33:26.093Z,100460.13
2022-10-31T01:34:07.691Z,100456.97
2022-10-31T01:34:48.129Z,100465.00
2022-10-31T01:35:28.181Z,100466.56
2022-10-31T01:36:09.104Z,100468.84
2022-10-31T01:36:52.312Z,100465.44
2022-10-31T01:37:33.169Z,100460.13
2022-10-31T01:38:13.175Z,100455.88
2022-10-31T01:38:55.081Z,100463.84
2022-10-31T01:39:35.175Z,100467.25
2022-10-31T01:40:16.120Z,100469.00
2022-10-31T01:40:57.217Z,100430.50
2022-10-31T01:41:41.112Z,100470.72
2022-10-31T01:42:28.163Z,100456.13
2022-10-31T01:43:08.219Z,100465.13
2022-10-31T01:44:22.203Z,100469.88
2022-10-31T01:45:07.077Z,100462.03
2022-10-31T01:45:49.152Z,100460.19
2022-10-31T01:46:39.096Z,100459.59
2022-10-31T01:47:25.206Z,100461.38
2022-10-31T01:48:06.120Z,100467.31
2022-10-31T01:48:47.122Z,100444.78
2022-10-31T01:49:31.176Z,100458.59
2022-10-31T01:50:13.359Z,100464.75
2022-10-31T01:50:56.116Z,100453.31
2022-10-31T01:51:35.217Z,100455.19
2022-10-31T01:52:27.211Z,100473.59
2022-10-31T01:53:08.091Z,100460.28
2022-10-31T01:53:43.220Z,100466.47
2022-10-31T01:54:26.125Z,100453.16
2022-10-31T01:55:13.191Z,100459.88
2022-10-31T01:55:54.093Z,100469.28
2022-10-31T01:56:35.140Z,100469.13
2022-10-31T01:57:18.114Z,100463.84
2022-10-31T01:58:02.693Z,100438.47
2022-10-31T01:58:43.072Z,100459.31
2022-10-31T01:59:34.125Z,100448.91
2022-10-31T02:00:11.097Z,100450.44
2022-10-31T02:01:05.056Z,100469.28
2022-10-31T02:01:42.196Z,100465.72
2022-10-31T02:02:30.263Z,100474.13
2022-10-31T02:03:04.297Z,100463.88
2022-10-31T02:03:52.084Z,100466.47
2022-10-31T02:04:26.661Z,100459.63
2022-10-31T02:05:12.181Z,100468.03
2022-10-31T02:05:46.152Z,100469.88
2022-10-31T02:06:42.507Z,100457.91
2022-10-31T02:07:28.125Z,100440.34
2022-10-31T02:08:21.155Z,100462.47
2022-10-31T02:08:57.449Z,100457.63
2022-10-31T02:09:39.095Z,100453.75
2022-10-31T02:10:20.120Z,100467.16
2022-10-31T02:10:54.119Z,100459.19
2022-10-31T02:11:43.154Z,100466.91
2022-10-31T02:12:17.352Z,100467.16
2022-10-31T02:13:09.067Z,100470.47
2022-10-31T02:13:42.999Z,100460.47
2022-10-31T02:14:30.086Z,100468.91
2022-10-31T02:15:04.973Z,100473.34
2022-10-31T02:15:47.079Z,100477.91
2022-10-31T02:16:21.103Z,100435.53
2022-10-31T02:16:55.536Z,100476.63
2022-10-31T02:17:38.068Z,100474.19
2022-10-31T02:18:13.135Z,100475.63
2022-10-31T02:18:46.826Z,100474.19
2022-10-31T02:19:42.091Z,100476.22
2022-10-31T02:20:30.146Z,100475.19
2022-10-31T02:21:53.081Z,100489.78
2022-10-31T02:23:12.127Z,100490.34
2022-10-31T02:24:21.091Z,100480.19
2022-10-31T02:25:59.168Z,100489.50
2022-10-31T02:27:14.124Z,100459.97
2022-10-31T02:28:40.167Z,100475.66
2022-10-31T02:29:41.081Z,100486.50
2022-10-31T02:30:34.157Z,100465.09
2022-10-31T02:31:44.055Z,100495.09
2022-10-31T02:33:01.223Z,100475.94
2022-10-31T02:34:06.019Z,100478.66
2022-10-31T02:35:32.131Z,100489.34
2022-10-31T02:36:28.798Z,100490.09
2022-10-31T02:37:45.051Z,100490.50
2022-10-31T02:38:50.070Z,100477.63
2022-10-31T02:39:40.119Z,100480.94
2022-10-31T02:40:33.048Z,100486.78
2022-10-31T02:41:43.123Z,100481.94
2022-10-31T02:42:36.031Z,100481.94
2022-10-31T02:44:00.101Z,100491.34
2022-10-31T02:44:45.678Z,100473.38
2022-10-31T02:45:33.072Z,100486.09
2022-10-31T02:46:22.360Z,100495.22
2022-10-31T02:47:14.111Z,100486.34
2022-10-31T02:47:50.317Z,100489.94
2022-10-31T02:48:43.038Z,100485.66
2022-10-31T02:49:48.099Z,100497.50
2022-10-31T02:50:36.251Z,100476.66
2022-10-31T02:51:17.065Z,100483.66
2022-10-31T02:51:58.171Z,100482.53
2022-10-31T02:52:40.069Z,100487.94
2022-10-31T02:53:23.131Z,100483.94
2022-10-31T02:54:03.075Z,100483.50
2022-10-31T02:54:43.087Z,100489.06
2022-10-31T02:55:32.082Z,100495.22
2022-10-31T02:56:22.080Z,100486.09
2022-10-31T02:57:13.019Z,100491.38
2022-10-31T02:57:53.162Z,100499.09
2022-10-31T02:58:38.047Z,100491.34
2022-10-31T02:59:18.131Z,100493.50
2022-10-31T03:00:06.051Z,100495.31
2022-10-31T03:01:11.163Z,100487.06
2022-10-31T03:02:01.761Z,100488.22
2022-10-31T03:03:15.032Z,100488.06
2022-10-31T03:03:58.941Z,100481.81
2022-10-31T03:05:01.076Z,100504.22
2022-10-31T03:06:01.924Z,100490.22
2022-10-31T03:07:16.147Z,100497.34
2022-10-31T03:08:03.121Z,100483.22
2022-10-31T03:09:17.238Z,100499.91
2022-10-31T03:10:12.999Z,100489.22
2022-10-31T03:10:55.096Z,100492.38
2022-10-31T03:11:52.196Z,100495.66
2022-10-31T03:13:07.078Z,100473.66
2022-10-31T03:14:12.129Z,100469.09
2022-10-31T03:15:01.063Z,100495.94
2022-10-31T03:16:09.003Z,100489.78
2022-10-31T03:16:58.110Z,100483.66
2022-10-31T03:17:40.359Z,100504.50
2022-10-31T03:19:12.040Z,100501.06
2022-10-31T03:19:51.093Z,100502.09
2022-10-31T03:20:34.969Z,100509.94
2022-10-31T03:21:22.019Z,100500.06
2022-10-31T03:22:05.731Z,100507.94
2022-10-31T03:22:42.155Z,100490.22
2022-10-31T03:23:25.021Z,100502.78
2022-10-31T03:24:00.111Z,100503.50
2022-10-31T03:24:45.071Z,100508.63
2022-10-31T03:25:26.157Z,100506.22
2022-10-31T03:26:09.020Z,100503.78
2022-10-31T03:26:57.191Z,100494.81
2022-10-31T03:27:42.092Z,100505.34
2022-10-31T03:28:25.154Z,100494.50
2022-10-31T03:29:18.098Z,100498.50
2022-10-31T03:30:11.044Z,100508.91
2022-10-31T03:30:45.795Z,100499.34
2022-10-31T03:31:37.031Z,100502.50
2022-10-31T03:32:26.222Z,100507.78
2022-10-31T03:33:16.069Z,100503.38
2022-10-31T03:33:52.205Z,100491.34
2022-10-31T03:34:40.005Z,100499.66
2022-10-31T03:35:22.035Z,100501.34
2022-10-31T03:36:03.022Z,100508.78
2022-10-31T03:36:47.046Z,100517.06
2022-10-31T03:37:29.074Z,100512.22
2022-10-31T03:38:11.005Z,100509.34
2022-10-31T03:38:53.088Z,100496.50
2022-10-31T03:39:34.006Z,100479.09
2022-10-31T03:40:18.083Z,100501.66
2022-10-31T03:41:00.036Z,100505.94
2022-10-31T03:41:47.094Z,100493.78
2022-10-31T03:42:31.967Z,100504.78
2022-10-31T03:43:18.197Z,100512.34
2022-10-31T03:44:11.005Z,100502.38
2022-10-31T03:44:48.095Z,100513.66
2022-10-31T03:45:37.980Z,100519.06
2022-10-31T03:46:19.032Z,100507.63
2022-10-31T03:47:12.996Z,100512.06
2022-10-31T03:48:08.030Z,100507.47
2022-10-31T03:49:01.988Z,100502.38
2022-10-31T03:49:56.081Z,100509.34
2022-10-31T03:51:27.027Z,100508.22
2022-10-31T03:52:39.999Z,100512.78
2022-10-31T03:53:48.956Z,100497.09
2022-10-31T03:55:50.997Z,100508.22
2022-10-31T03:56:49.027Z,100518.22
2022-10-31T03:58:11.014Z,100517.38
2022-10-31T03:59:14.986Z,100515.63
2022-10-31T04:00:30.014Z,100513.91
2022-10-31T04:01:27.164Z,100523.06
2022-10-31T04:02:21.088Z,100508.78
2022-10-31T04:03:20.076Z,100516.78
2022-10-31T04:04:08.036Z,100517.06
2022-10-31T04:04:43.452Z,100509.63
2022-10-31T04:05:30.981Z,100517.63
2022-10-31T04:06:10.313Z,100515.75
2022-10-31T04:06:58.964Z,100518.47
2022-10-31T04:07:45.076Z,100524.78
2022-10-31T04:08:43.012Z,100495.66
2022-10-31T04:09:36.987Z,100518.47
2022-10-31T04:10:33.325Z,100517.34
2022-10-31T04:11:28.962Z,100521.50
2022-10-31T04:12:23.970Z,100498.47
2022-10-31T04:13:12.033Z,100523.06
2022-10-31T04:13:53.091Z,100512.63
2022-10-31T04:14:35.953Z,100511.88
2022-10-31T04:15:18.024Z,100524.19
2022-10-31T04:16:00.007Z,100521.06
2022-10-31T04:16:40.041Z,100522.06
2022-10-31T04:17:24.965Z,100507.34
2022-10-31T04:18:07.119Z,100512.22
2022-10-31T04:18:47.972Z,100524.47
2022-10-31T04:19:28.061Z,100525.47
2022-10-31T04:20:08.943Z,100526.22
2022-10-31T04:20:50.955Z,100512.22
2022-10-31T04:21:39.970Z,100523.06
2022-10-31T04:22:21.064Z,100515.19
2022-10-31T04:23:00.961Z,100515.19
2022-10-31T04:23:43.084Z,100524.78
2022-10-31T04:24:24.043Z,100524.03
2022-10-31T04:25:04.054Z,100519.91
2022-10-31T04:26:35.973Z,100501.59
2022-10-31T04:27:29.991Z,100519.06
2022-10-31T04:28:23.960Z,100513.47
2022-10-31T04:29:17.992Z,100519.63
2022-10-31T04:30:05.267Z,100517.91
2022-10-31T04:30:45.107Z,100532.72
2022-10-31T04:31:26.948Z,100510.47
2022-10-31T04:32:07.082Z,100517.28
2022-10-31T04:32:46.930Z,100531.19
2022-10-31T04:33:27.041Z,100510.72
2022-10-31T04:34:08.942Z,100521.44
2022-10-31T04:34:49.105Z,100513.84
2022-10-31T04:35:28.996Z,100521.00
2022-10-31T04:36:09.063Z,100534.41
2022-10-31T04:36:48.936Z,100521.38
2022-10-31T04:37:29.019Z,100518.13
2022-10-31T04:38:08.923Z,100516.13
2022-10-31T04:39:14.627Z,100522.53
2022-10-31T04:40:02.928Z,100508.13
2022-10-31T04:40:42.956Z,100518.13
2022-10-31T04:41:22.991Z,100511.81
2022-10-31T04:42:02.956Z,100522.97
2022-10-31T04:42:49.020Z,100513.13
2022-10-31T04:43:28.984Z,100520.50
2022-10-31T04:44:10.999Z,100523.97
2022-10-31T04:44:50.934Z,100513.97
2022-10-31T04:45:30.975Z,100511.66
2022-10-31T04:46:11.971Z,100514.63
2022-10-31T04:46:51.988Z,100511.25
2022-10-31T04:47:40.907Z,100505.25
2022-10-31T04:48:56.920Z,100497.25
2022-10-31T04:49:46.938Z,100510.09
2022-10-31T04:50:45.389Z,100509.69
2022-10-31T04:51:35.004Z,100511.25
2022-10-31T04:52:11.135Z,100511.81
2022-10-31T04:52:57.913Z,100514.81
2022-10-31T04:53:32.053Z,100511.81
2022-10-31T04:54:18.933Z,100516.38
2022-10-31T04:54:56.032Z,100501.75
2022-10-31T04:55:44.978Z,100501.03
2022-10-31T04:56:19.027Z,100498.06
2022-10-31T04:56:58.943Z,100508.06
2022-10-31T04:57:38.991Z,100519.19
2022-10-31T04:58:18.963Z,100512.06
2022-10-31T04:58:58.990Z,100514.88
2022-10-31T04:59:39.907Z,100506.66
2022-10-31T05:00:22.997Z,100520.91
2022-10-31T05:01:04.178Z,100500.94
2022-10-31T05:01:45.218Z,100511.22
2022-10-31T05:02:25.019Z,100513.22
2022-10-31T05:03:05.983Z,100512.81
2022-10-31T05:03:46.930Z,100513.38
2022-10-31T05:04:26.987Z,100510.97
2022-10-31T05:05:07.935Z,100512.94
2022-10-31T05:05:49.005Z,100514.38
2022-10-31T05:06:28.891Z,100511.94
2022-10-31T05:07:09.126Z,100518.66
2022-10-31T05:07:52.019Z,100503.66
2022-10-31T05:08:31.964Z,100511.94
2022-10-31T05:09:12.923Z,100512.66
2022-10-31T05:09:53.069Z,100509.50
2022-10-31T05:10:36.909Z,100516.63
2022-10-31T05:11:16.951Z,100516.38
2022-10-31T05:11:56.899Z,100505.09
2022-10-31T05:12:36.981Z,100508.97
2022-10-31T05:13:17.962Z,100510.66
2022-10-31T05:14:11.903Z,100524.22
2022-10-31T05:15:06.093Z,100508.25
2022-10-31T05:15:59.907Z,100518.25
2022-10-31T05:16:53.903Z,100516.81
2022-10-31T05:17:47.905Z,100514.41
2022-10-31T05:18:34.917Z,100512.69
2022-10-31T05:19:08.967Z,100515.72
2022-10-31T05:19:55.888Z,100520.97
2022-10-31T05:20:34.008Z,100523.69
2022-10-31T05:21:20.896Z,100527.00
2022-10-31T05:21:54.994Z,100524.13
2022-10-31T05:22:41.912Z,100523.53
2022-10-31T05:23:15.987Z,100528.69
2022-10-31T05:23:56.896Z,100522.44
2022-10-31T05:24:37.173Z,100529.81
2022-10-31T05:25:17.871Z,100509.53
2022-10-31T05:25:57.980Z,100526.69
2022-10-31T05:26:37.899Z,100526.69
2022-10-31T05:27:17.979Z,100524.13
2022-10-31T05:28:00.343Z,100521.38
2022-10-31T05:28:40.934Z,100531.25
2022-10-31T05:29:21.946Z,100525.81
2022-10-31T05:30:02.189Z,100523.66
2022-10-31T05:30:42.907Z,100535.94
2022-10-31T05:31:22.968Z,100527.41
2022-10-31T05:32:02.889Z,100535.25
2022-10-31T05:32:50.991Z,100530.66
2022-10-31T05:33:31.902Z,100530.41
2022-10-31T05:34:12.011Z,100524.09
2022-10-31T05:34:51.936Z,100531.53
2022-10-31T05:35:38.975Z,100535.97
2022-10-31T05:36:18.879Z,100528.66
2022-10-31T05:36:59.001Z,100525.53
2022-10-31T05:37:39.874Z,100527.22
2022-10-31T05:38:20.047Z,100532.09
2022-10-31T05:39:00.912Z,100540.66
2022-10-31T05:39:40.943Z,100534.06
2022-10-31T05:40:23.887Z,100534.34
2022-10-31T05:41:03.948Z,100531.78
2022-10-31T05:41:43.903Z,100535.91
2022-10-31T05:42:23.941Z,100527.78
2022-10-31T05:43:05.883Z,100526.78
2022-10-31T05:43:45.992Z,100538.31
2022-10-31T05:44:26.862Z,100534.25
2022-10-31T05:45:06.918Z,100539.97
2022-10-31T05:45:46.913Z,100530.28
2022-10-31T05:46:26.984Z,100542.00
2022-10-31T05:47:06.899Z,100532.16
2022-10-31T05:47:46.923Z,100531.56
2022-10-31T05:48:27.924Z,100540.13
2022-10-31T05:49:07.931Z,100546.28
2022-10-31T05:49:48.863Z,100536.84
2022-10-31T05:50:29.952Z,100539.44
2022-10-31T05:51:10.907Z,100513.53
2022-10-31T05:51:50.921Z,100531.41
2022-10-31T05:52:31.881Z,100547.38
2022-10-31T05:53:12.951Z,100547.06
2022-10-31T05:53:54.914Z,100552.38
2022-10-31T05:54:34.968Z,100534.81
2022-10-31T05:55:15.877Z,100544.84
2022-10-31T05:55:55.950Z,100545.44
2022-10-31T05:56:35.902Z,100540.56
2022-10-31T05:57:16.938Z,100548.25
2022-10-31T05:57:57.076Z,100531.13
2022-10-31T05:58:37.931Z,100553.13
2022-10-31T05:59:18.855Z,100542.53
2022-10-31T05:59:58.941Z,100560.09
2022-10-31T06:00:41.874Z,100531.41
2022-10-31T06:01:22.070Z,100558.78
2022-10-31T06:02:01.939Z,100556.69
2022-10-31T06:02:41.908Z,100549.94
2022-10-31T06:03:21.854Z,100552.81
2022-10-31T06:04:01.956Z,100556.94
2022-10-31T06:04:41.929Z,100561.09
2022-10-31T06:05:21.886Z,100555.69
2022-10-31T06:06:01.856Z,100565.25
2022-10-31T06:06:41.920Z,100562.81
2022-10-31T06:07:22.900Z,100524.53
2022-10-31T06:08:04.365Z,100556.72
2022-10-31T06:08:45.887Z,100566.56
2022-10-31T06:09:26.984Z,100565.16
2022-10-31T06:10:07.852Z,100558.28
2022-10-31T06:10:47.904Z,100568.59
2022-10-31T06:11:27.829Z,100560.28
2022-10-31T06:12:07.924Z,100565.16
2022-10-31T06:12:48.998Z,100550.00
2022-10-31T06:13:28.928Z,100565.72
2022-10-31T06:14:09.851Z,100566.41
2022-10-31T06:14:49.950Z,100569.13
2022-10-31T06:15:30.010Z,100567.69
2022-10-31T06:16:09.906Z,100563.13
2022-10-31T06:16:49.855Z,100560.56
2022-10-31T06:17:29.905Z,100566.28
2022-10-31T06:18:12.903Z,100568.53
2022-10-31T06:18:54.917Z,100561.25
2022-10-31T06:19:34.931Z,100571.84
2022-10-31T06:20:16.005Z,100567.69
2022-10-31T06:20:55.835Z,100571.25
2022-10-31T06:21:35.944Z,100559.94
2022-10-31T06:22:18.836Z,100560.56
2022-10-31T06:22:59.271Z,100576.56
2022-10-31T06:23:40.900Z,100580.53
2022-10-31T06:24:20.929Z,100566.06
2022-10-31T06:25:00.847Z,100575.34
2022-10-31T06:25:41.982Z,100578.53
2022-10-31T06:26:21.853Z,100582.69
2022-10-31T06:27:01.942Z,100570.53
2022-10-31T06:27:41.841Z,100576.81
2022-10-31T06:28:21.949Z,100583.81
2022-10-31T06:29:04.016Z,100581.41
2022-10-31T06:29:46.802Z,100579.16
2022-10-31T06:30:27.822Z,100571.03
2022-10-31T06:31:07.939Z,100584.59
2022-10-31T06:31:47.824Z,100578.81
2022-10-31T06:32:27.908Z,100583.97
2022-10-31T06:33:12.843Z,100574.94
2022-10-31T06:33:52.908Z,100577.53
2022-10-31T06:34:32.855Z,100576.25
2022-10-31T06:35:13.980Z,100588.50
2022-10-31T06:35:54.819Z,100571.78
2022-10-31T06:36:34.942Z,100586.66
2022-10-31T06:37:16.814Z,100585.66
2022-10-31T06:38:04.263Z,100578.41
2022-10-31T06:38:45.806Z,100582.69
2022-10-31T06:39:25.918Z,100582.22
2022-10-31T06:40:05.883Z,100579.69
2022-10-31T06:40:45.904Z,100585.78
2022-10-31T06:43:33.891Z,100576.19
2022-10-31T06:44:14.922Z,100581.06
2022-10-31T06:44:54.863Z,100596.31
2022-10-31T06:45:35.895Z,100580.78
2022-10-31T06:46:11.917Z,100584.78
2022-10-31T06:46:58.867Z,100591.91
2022-10-31T06:47:35.281Z,100595.06
2022-10-31T06:48:28.838Z,100591.63
2022-10-31T06:49:02.886Z,100594.38
2022-10-31T06:49:49.815Z,100597.63
2022-10-31T06:50:23.895Z,100600.19
2022-10-31T06:51:07.894Z,100581.31
2022-10-31T06:51:47.973Z,100599.19
2022-10-31T06:52:27.826Z,100573.78
2022-10-31T06:53:07.966Z,100599.09
2022-10-31T06:53:48.844Z,100597.50
2022-10-31T06:54:28.978Z,100595.78
2022-10-31T06:55:08.853Z,100581.59
2022-10-31T06:55:49.888Z,100596.91
2022-10-31T06:56:29.875Z,100601.06
2022-10-31T06:57:23.807Z,100597.63
2022-10-31T06:58:17.885Z,100601.91
2022-10-31T06:59:11.926Z,100600.09
2022-10-31T07:00:07.852Z,100585.38
2022-10-31T07:01:02.891Z,100601.81
2022-10-31T07:01:50.001Z,100594.69
2022-10-31T07:02:26.980Z,100597.00
2022-10-31T07:03:18.811Z,100609.84
2022-10-31T07:03:54.971Z,100607.44
2022-10-31T07:04:41.838Z,100600.84
2022-10-31T07:05:15.959Z,100573.50
2022-10-31T07:06:03.831Z,100610.41
2022-10-31T07:06:37.986Z,100599.84
2022-10-31T07:07:17.823Z,100605.13
2022-10-31T07:08:09.933Z,100602.97
2022-10-31T07:08:50.808Z,100592.53
2022-10-31T07:09:30.890Z,100602.41
2022-10-31T07:11:00.877Z,100603.44
2022-10-31T07:11:40.807Z,100605.00
2022-10-31T07:12:27.883Z,100607.59
2022-10-31T07:13:32.826Z,100614.00
2022-10-31T07:14:26.859Z,100608.88
2022-10-31T07:15:21.845Z,100610.59
2022-10-31T07:16:19.837Z,100610.00
2022-10-31T07:17:06.930Z,100598.44
2022-10-31T07:17:47.878Z,100611.28
2022-10-31T07:18:28.929Z,100614.31
2022-10-31T07:19:09.856Z,100611.34
2022-10-31T07:19:49.852Z,100601.50
2022-10-31T07:20:29.815Z,100608.66
2022-10-31T07:21:10.943Z,100612.38
2022-10-31T07:21:50.776Z,100607.22
2022-10-31T07:22:30.846Z,100606.91
2022-10-31T07:23:11.861Z,100611.78
2022-10-31T07:23:54.831Z,100593.78
2022-10-31T07:24:35.756Z,100603.53
2022-10-31T07:25:16.892Z,100612.81
2022-10-31T07:26:03.794Z,100599.34
2022-10-31T07:26:43.966Z,100604.69
2022-10-31T07:27:23.782Z,100598.69
2022-10-31T07:28:04.186Z,100607.41
2022-10-31T07:28:45.844Z,100614.97
2022-10-31T07:29:26.881Z,100611.84
2022-10-31T07:30:06.781Z,100625.00
2022-10-31T07:30:46.864Z,100618.13
2022-10-31T07:31:26.848Z,100620.13
2022-10-31T07:32:06.913Z,100618.13
2022-10-31T07:32:57.771Z,100616.72
2022-10-31T07:33:38.955Z,100608.88
2022-10-31T07:34:19.799Z,100617.31
2022-10-31T07:35:00.985Z,100612.44
2022-10-31T07:35:42.847Z,100611.13
2022-10-31T07:36:22.934Z,100621.28
2022-10-31T07:37:02.771Z,100615.81
2022-10-31T07:37:42.832Z,100623.00
2022-10-31T07:38:23.875Z,100611.69
2022-10-31T07:39:03.858Z,100608.56
2022-10-31T07:39:44.797Z,100608.72
2022-10-31T07:40:26.054Z,100619.16
2022-10-31T07:41:05.779Z,100622.13
2022-10-31T07:41:45.864Z,100619.72
2022-10-31T07:42:25.742Z,100625.00
2022-10-31T07:43:08.827Z,100616.00
2022-10-31T07:44:33.904Z,100608.31
2022-10-31T07:45:16.849Z,100606.44
2022-10-31T07:45:58.879Z,100619.59
2022-10-31T07:46:41.800Z,100602.88
2022-10-31T07:47:21.848Z,100626.16
2022-10-31T07:48:03.118Z,100618.31
2022-10-31T07:48:43.809Z,100630.44
2022-10-31T07:49:24.764Z,100623.03
2022-10-31T07:50:04.835Z,100621.63
2022-10-31T07:50:44.832Z,100618.75
2022-10-31T07:51:25.079Z,100620.47
2022-10-31T07:52:04.775Z,100613.47
2022-10-31T07:52:44.850Z,100628.03
2022-10-31T07:53:24.774Z,100619.63
2022-10-31T07:54:04.800Z,100608.44
2022-10-31T07:54:45.728Z,100627.91
2022-10-31T07:55:25.877Z,100628.19
2022-10-31T07:56:05.802Z,100621.16
2022-10-31T07:56:48.074Z,100622.31
2022-10-31T07:57:31.883Z,100616.47
2022-10-31T07:58:20.892Z,100610.59
2022-10-31T07:59:00.755Z,100616.75
2022-10-31T07:59:40.830Z,100609.88
2022-10-31T08:00:21.723Z,100625.59
2022-10-31T08:01:01.983Z,100619.91
2022-10-31T08:01:41.774Z,100610.75
2022-10-31T08:02:21.824Z,100618.75
2022-10-31T08:03:11.729Z,100599.91
2022-10-31T08:03:51.842Z,100611.88
2022-10-31T08:04:32.750Z,100626.19
2022-10-31T08:05:13.795Z,100614.91
2022-10-31T08:05:54.759Z,100611.63
2022-10-31T08:06:35.359Z,100616.91
2022-10-31T08:07:15.755Z,100622.91
2022-10-31T08:07:49.452Z,100618.47
2022-10-31T08:08:38.400Z,100621.75
2022-10-31T08:09:12.532Z,100587.47
2022-10-31T08:09:59.755Z,100608.06
2022-10-31T08:10:34.461Z,100615.75
2022-10-31T08:11:21.726Z,100603.31
2022-10-31T08:11:55.623Z,100617.59
2022-10-31T08:12:35.738Z,100616.59
2022-10-31T08:13:44.887Z,100624.19
2022-10-31T08:14:19.477Z,100620.16
2022-10-31T08:14:59.708Z,100612.44
2022-10-31T08:15:35.126Z,100623.03
2022-10-31T08:16:09.515Z,100615.59
2022-10-31T08:16:49.738Z,100620.44
2022-10-31T08:17:23.801Z,100605.00
2022-10-31T08:18:05.844Z,100597.59
2022-10-31T08:18:45.834Z,100615.19
2022-10-31T08:19:25.749Z,100606.44
2022-10-31T08:20:05.831Z,100602.44
2022-10-31T08:20:46.718Z,100614.47
2022-10-31T08:21:26.812Z,100618.44
2022-10-31T08:22:07.725Z,100611.00
2022-10-31T08:22:47.828Z,100617.59
2022-10-31T08:23:27.783Z,100620.72
2022-10-31T08:24:08.861Z,100595.56
2022-10-31T08:24:48.750Z,100617.31
2022-10-31T08:25:33.783Z,100622.44
2022-10-31T08:26:19.728Z,100616.41
2022-10-31T08:27:00.891Z,100591.72
2022-10-31T08:27:40.727Z,100610.97
2022-10-31T08:28:21.943Z,100613.69